createdAt,value
2023-04-12T00:00:28.840Z,9.00
2023-04-12T00:02:59.447Z,9.45
2023-04-12T00:05:28.405Z,11.95
2023-04-12T00:07:56.753Z,10.80
2023-04-12T00:10:26.560Z,12.75
2023-04-12T00:12:54.806Z,13.20
2023-04-12T00:15:23.017Z,16.38
2023-04-12T00:17:51.342Z,12.73
2023-04-12T00:20:19.661Z,23.73
2023-04-12T00:22:48.221Z,13.57
2023-04-12T00:25:17.001Z,15.35
2023-04-12T00:27:46.563Z,20.30
2023-04-12T00:30:15.701Z,18.30
2023-04-12T00:32:44.326Z,15.88
2023-04-12T00:35:12.671Z,10.45
2023-04-12T00:37:41.173Z,17.75
2023-04-12T00:40:11.333Z,16.02
2023-04-12T00:42:39.635Z,14.68
2023-04-12T00:45:10.427Z,15.73
2023-04-12T00:47:39.213Z,11.63
2023-04-12T00:50:09.279Z,10.90
2023-04-12T00:52:37.773Z,12.10
2023-04-12T00:55:07.716Z,12.90
2023-04-12T00:57:37.610Z,13.55
2023-04-12T01:00:08.839Z,11.45
2023-04-12T01:02:39.812Z,10.70
2023-04-12T01:05:14.553Z,11.32
2023-04-12T01:07:51.551Z,13.00
2023-04-12T01:10:29.110Z,14.23
2023-04-12T01:13:09.648Z,11.65
2023-04-12T01:15:42.403Z,14.40
2023-04-12T01:18:17.683Z,11.90
2023-04-12T01:20:54.698Z,11.60
2023-04-12T01:23:44.803Z,14.07
2023-04-12T01:26:34.247Z,15.00
2023-04-12T01:29:10.011Z,12.80
2023-04-12T01:31:41.427Z,11.07
2023-04-12T01:34:13.184Z,10.13
2023-04-12T01:36:43.739Z,7.28
2023-04-12T01:39:12.228Z,6.30
2023-04-12T01:41:45.227Z,7.28
2023-04-12T01:44:16.282Z,2.55
2023-04-12T01:46:46.730Z,7.45
2023-04-12T01:49:16.716Z,5.38
2023-04-12T01:51:52.398Z,5.30
2023-04-12T01:54:24.006Z,6.20
2023-04-12T01:56:58.781Z,6.85
2023-04-12T01:59:33.215Z,3.00
2023-04-12T02:02:02.217Z,4.90
2023-04-12T02:04:31.507Z,3.13
2023-04-12T02:06:59.911Z,4.00
2023-04-12T02:09:28.201Z,3.88
2023-04-12T02:11:56.616Z,3.70
2023-04-12T02:14:24.850Z,1.80
2023-04-12T02:16:55.791Z,5.97
2023-04-12T02:19:24.672Z,3.63
2023-04-12T02:21:53.929Z,3.65
2023-04-12T02:24:23.583Z,3.10
2023-04-12T02:26:55.087Z,5.45
2023-04-12T02:29:23.880Z,3.92
2023-04-12T02:31:54.053Z,5.68
2023-04-12T02:34:24.734Z,3.38
2023-04-12T02:37:00.701Z,3.65
2023-04-12T02:39:29.220Z,5.57
2023-04-12T02:41:57.913Z,2.83
2023-04-12T02:44:26.179Z,4.78
2023-04-12T02:47:12.081Z,3.92
2023-04-12T02:49:42.180Z,3.25
2023-04-12T02:52:12.699Z,3.30
2023-04-12T02:54:52.269Z,2.80
2023-04-12T02:57:21.680Z,3.83
2023-04-12T02:59:52.991Z,6.57
2023-04-12T03:02:29.209Z,3.72
2023-04-12T03:05:03.521Z,3.13
2023-04-12T03:07:40.112Z,3.00
2023-04-12T03:10:11.378Z,6.10
2023-04-12T03:12:44.138Z,9.43
2023-04-12T03:15:17.742Z,7.75
2023-04-12T03:17:51.408Z,5.57
2023-04-12T03:20:24.442Z,5.60
2023-04-12T03:23:01.514Z,6.13
2023-04-12T03:25:31.197Z,8.90
2023-04-12T03:28:08.248Z,8.75
2023-04-12T03:30:49.621Z,17.85
2023-04-12T03:33:21.852Z,10.82
2023-04-12T03:35:51.731Z,8.48
2023-04-12T03:38:20.321Z,9.38
2023-04-12T03:40:48.902Z,8.35
2023-04-12T03:43:22.342Z,5.47
2023-04-12T03:45:50.990Z,8.73
2023-04-12T03:48:19.285Z,10.52
2023-04-12T03:50:48.870Z,9.18
2023-04-12T03:53:22.709Z,6.72
2023-04-12T03:55:52.384Z,6.88
2023-04-12T03:58:21.545Z,7.28
2023-04-12T04:00:49.960Z,10.13
2023-04-12T04:03:19.120Z,10.43
2023-04-12T04:05:57.709Z,9.55
2023-04-12T04:08:27.435Z,11.00
2023-04-12T04:10:58.187Z,12.70
2023-04-12T04:13:31.671Z,9.88
2023-04-12T04:16:05.430Z,9.85
2023-04-12T04:18:35.858Z,10.55
2023-04-12T04:21:07.385Z,8.05
2023-04-12T04:23:38.797Z,11.35
2023-04-12T04:26:10.052Z,8.60
2023-04-12T04:28:44.900Z,9.27
2023-04-12T04:31:17.662Z,9.32
2023-04-12T04:33:50.781Z,8.55
2023-04-12T04:36:22.498Z,13.18
2023-04-12T04:38:55.005Z,7.45
2023-04-12T04:41:43.155Z,7.60
2023-04-12T04:44:19.414Z,7.93
2023-04-12T04:46:56.627Z,7.93
2023-04-12T04:49:24.932Z,13.40
2023-04-12T04:51:55.388Z,10.88
2023-04-12T04:54:24.021Z,7.10
2023-04-12T04:56:52.748Z,8.60
2023-04-12T04:59:25.153Z,5.32
2023-04-12T05:01:58.170Z,7.05
2023-04-12T05:04:26.612Z,10.73
2023-04-12T05:06:56.874Z,12.95
2023-04-12T05:09:27.463Z,12.65
2023-04-12T05:11:57.989Z,10.30
2023-04-12T05:14:41.334Z,6.45
2023-04-12T05:17:14.447Z,12.55
2023-04-12T05:19:44.807Z,19.35
2023-04-12T05:22:14.594Z,15.73
2023-04-12T05:24:44.870Z,9.85
2023-04-12T05:27:13.186Z,7.85
2023-04-12T05:29:41.542Z,7.90
2023-04-12T05:32:10.484Z,8.73
2023-04-12T05:34:39.583Z,5.93
2023-04-12T05:37:08.299Z,8.15
2023-04-12T05:39:40.993Z,10.30
2023-04-12T05:42:13.536Z,12.40
2023-04-12T05:44:41.858Z,10.68
2023-04-12T05:47:13.765Z,6.55
2023-04-12T05:49:42.176Z,13.57
2023-04-12T05:52:14.076Z,6.63
2023-04-12T05:54:43.716Z,9.10
2023-04-12T05:57:17.626Z,10.55
2023-04-12T05:59:48.630Z,18.27
2023-04-12T06:02:17.052Z,20.15
2023-04-12T06:04:50.881Z,18.45
2023-04-12T06:07:21.600Z,22.33
2023-04-12T06:09:51.515Z,13.57
2023-04-12T06:12:21.143Z,21.52
2023-04-12T06:14:49.368Z,17.77
2023-04-12T06:17:18.206Z,17.25
2023-04-12T06:19:46.508Z,15.38
2023-04-12T06:22:17.801Z,21.95
2023-04-12T06:24:46.084Z,20.15
2023-04-12T06:27:15.754Z,13.52
2023-04-12T06:29:44.147Z,18.05
2023-04-12T06:32:12.510Z,18.00
2023-04-12T06:34:41.491Z,13.25
2023-04-12T06:37:15.890Z,15.95
2023-04-12T06:39:44.127Z,13.43
2023-04-12T06:42:14.513Z,11.95
2023-04-12T06:44:44.586Z,18.92
2023-04-12T06:47:15.993Z,13.25
2023-04-12T06:49:44.340Z,19.10
2023-04-12T06:52:15.253Z,25.08
2023-04-12T06:54:44.048Z,16.00
2023-04-12T06:57:12.492Z,17.17
2023-04-12T06:59:41.158Z,18.92
2023-04-12T07:02:11.032Z,17.50
2023-04-12T07:04:39.298Z,20.33
2023-04-12T07:07:08.007Z,13.52
2023-04-12T07:09:36.230Z,12.15
2023-04-12T07:12:04.574Z,14.25
2023-04-12T07:14:32.825Z,16.25
2023-04-12T07:17:01.028Z,14.63
2023-04-12T07:19:31.409Z,14.55
2023-04-12T07:22:00.201Z,16.90
2023-04-12T07:24:28.447Z,12.68
2023-04-12T07:26:57.019Z,22.92
2023-04-12T07:29:25.233Z,15.23
2023-04-12T07:31:53.465Z,21.13
2023-04-12T07:34:21.881Z,16.58
2023-04-12T07:36:51.776Z,15.85
2023-04-12T07:39:20.001Z,14.25
2023-04-12T07:41:49.016Z,14.80
2023-04-12T07:44:17.290Z,21.83
2023-04-12T07:46:46.179Z,23.83
2023-04-12T07:49:14.637Z,11.88
2023-04-12T07:51:43.605Z,15.35
2023-04-12T07:54:13.268Z,11.68
2023-04-12T07:56:41.655Z,13.80
2023-04-12T07:59:09.917Z,9.02
2023-04-12T08:01:38.160Z,13.90
2023-04-12T08:04:07.118Z,8.45
2023-04-12T08:06:35.522Z,9.07
2023-04-12T08:09:03.837Z,13.05
2023-04-12T08:11:36.228Z,14.75
2023-04-12T08:14:04.538Z,15.73
2023-04-12T08:16:34.844Z,11.88
2023-04-12T08:19:04.389Z,10.93
2023-04-12T08:21:33.632Z,18.05
2023-04-12T08:24:01.860Z,14.05
2023-04-12T08:26:30.124Z,13.18
2023-04-12T08:28:59.688Z,11.68
2023-04-12T08:31:27.953Z,10.88
2023-04-12T08:33:56.607Z,10.27
2023-04-12T08:36:25.028Z,15.02
2023-04-12T08:38:55.665Z,15.90
2023-04-12T08:41:23.973Z,13.38
2023-04-12T08:43:53.447Z,12.05
2023-04-12T08:46:23.533Z,14.02
2023-04-12T08:48:55.074Z,11.98
2023-04-12T08:51:23.759Z,12.75
2023-04-12T08:53:53.958Z,17.08
2023-04-12T08:56:24.184Z,14.02
2023-04-12T08:58:56.582Z,11.75
2023-04-12T09:01:26.648Z,11.63
2023-04-12T09:03:55.141Z,11.65
2023-04-12T09:06:23.730Z,10.10
2023-04-12T09:08:56.322Z,9.32
2023-04-12T09:11:25.985Z,7.85
2023-04-12T09:13:56.134Z,7.75
2023-04-12T09:16:40.410Z,8.02
2023-04-12T09:19:09.490Z,7.93
2023-04-12T09:21:38.713Z,10.07
2023-04-12T09:24:13.934Z,9.23
2023-04-12T09:26:42.940Z,7.57
2023-04-12T09:29:25.122Z,6.00
2023-04-12T09:32:02.088Z,9.07
2023-04-12T09:34:31.229Z,9.68
2023-04-12T09:37:00.028Z,6.18
2023-04-12T09:39:33.187Z,8.75
2023-04-12T09:42:17.900Z,6.18
2023-04-12T09:44:46.772Z,7.03
2023-04-12T09:47:16.565Z,7.28
2023-04-12T09:49:46.251Z,6.20
2023-04-12T09:52:15.495Z,4.95
2023-04-12T09:54:45.615Z,5.38
2023-04-12T09:57:18.185Z,6.30
2023-04-12T09:59:51.181Z,8.13
2023-04-12T10:02:27.662Z,5.07
2023-04-12T10:04:56.326Z,5.65
2023-04-12T10:07:25.490Z,6.72
2023-04-12T10:09:54.297Z,5.75
2023-04-12T10:12:23.123Z,3.33
2023-04-12T10:14:53.719Z,8.52
2023-04-12T10:17:25.545Z,7.13
2023-04-12T10:19:54.055Z,3.63
2023-04-12T10:22:23.912Z,2.65
2023-04-12T10:24:54.199Z,7.00
2023-04-12T10:27:27.094Z,4.25
2023-04-12T10:29:55.921Z,4.53
2023-04-12T10:32:26.726Z,5.72
2023-04-12T10:35:00.933Z,5.55
2023-04-12T10:38:00.091Z,4.38
2023-04-12T10:40:29.058Z,4.07
2023-04-12T10:43:30.157Z,3.25
2023-04-12T10:46:04.119Z,4.18
2023-04-12T10:48:35.364Z,5.55
2023-04-12T10:51:23.436Z,3.80
2023-04-12T10:53:53.710Z,5.18
2023-04-12T10:56:39.650Z,5.30
2023-04-12T10:59:09.850Z,4.43
2023-04-12T11:02:19.171Z,5.78
2023-04-12T11:05:11.197Z,5.32
2023-04-12T11:08:15.950Z,4.72
2023-04-12T11:11:04.076Z,5.35
2023-04-12T11:13:37.660Z,3.75
2023-04-12T11:16:07.717Z,2.90
2023-04-12T11:18:36.617Z,3.80
2023-04-12T11:21:07.730Z,4.45
2023-04-12T11:23:36.934Z,3.97
2023-04-12T11:26:06.151Z,4.18
2023-04-12T11:28:36.364Z,4.75
2023-04-12T11:31:05.492Z,3.17
2023-04-12T11:33:35.294Z,5.07
2023-04-12T11:36:07.360Z,4.75
2023-04-12T11:38:37.929Z,3.72
2023-04-12T11:41:08.068Z,2.47
2023-04-12T11:43:38.712Z,2.75
2023-04-12T11:46:07.986Z,3.35
2023-04-12T11:48:38.586Z,2.30
2023-04-12T11:51:22.327Z,2.20
2023-04-12T11:54:00.205Z,3.70
2023-04-12T11:56:31.820Z,4.95
2023-04-12T11:59:00.192Z,3.15
2023-04-12T12:01:29.342Z,3.03
2023-04-12T12:03:58.361Z,3.83
2023-04-12T12:06:29.376Z,2.08
2023-04-12T12:08:58.091Z,3.13
2023-04-12T12:11:27.490Z,3.60
2023-04-12T12:13:57.073Z,2.42
2023-04-12T12:16:27.727Z,3.00
2023-04-12T12:18:57.187Z,4.05
2023-04-12T12:21:27.196Z,2.58
2023-04-12T12:23:58.593Z,2.47
2023-04-12T12:26:28.706Z,5.30
2023-04-12T12:29:00.306Z,3.80
2023-04-12T12:31:33.650Z,2.50
2023-04-12T12:34:04.902Z,12.27
2023-04-12T12:36:36.056Z,5.95
2023-04-12T12:39:10.507Z,3.25
2023-04-12T12:41:40.118Z,4.68
2023-04-12T12:44:09.080Z,3.28
2023-04-12T12:46:52.090Z,6.78
2023-04-12T12:49:22.464Z,3.40
2023-04-12T12:51:52.156Z,3.80
2023-04-12T12:54:39.357Z,3.38
2023-04-12T12:57:09.276Z,2.35
2023-04-12T12:59:37.583Z,2.83
2023-04-12T13:02:07.454Z,4.15
2023-04-12T13:04:36.385Z,4.18
2023-04-12T13:07:05.188Z,5.75
2023-04-12T13:09:34.922Z,5.00
2023-04-12T13:12:04.166Z,3.80
2023-04-12T13:14:32.485Z,2.78
2023-04-12T13:17:00.750Z,2.67
2023-04-12T13:19:29.065Z,4.50
2023-04-12T13:21:57.611Z,3.22
2023-04-12T13:24:26.083Z,5.15
2023-04-12T13:26:55.758Z,3.20
2023-04-12T13:29:24.163Z,4.53
2023-04-12T13:31:52.527Z,2.90
2023-04-12T13:34:20.939Z,2.28
2023-04-12T13:36:50.770Z,3.45
2023-04-12T13:39:19.249Z,3.17
2023-04-12T13:41:47.654Z,4.88
2023-04-12T13:44:17.459Z,5.05
2023-04-12T13:46:45.850Z,4.15
2023-04-12T13:49:16.919Z,4.10
2023-04-12T13:51:45.589Z,5.40
2023-04-12T13:54:15.533Z,3.70
2023-04-12T13:56:47.033Z,4.15
2023-04-12T13:59:15.459Z,5.80
2023-04-12T14:01:45.319Z,7.20
2023-04-12T14:04:13.832Z,3.75
2023-04-12T14:06:42.763Z,4.32
2023-04-12T14:09:11.130Z,4.05
2023-04-12T14:11:57.971Z,2.85
2023-04-12T14:14:27.494Z,3.72
2023-04-12T14:16:57.877Z,4.43
2023-04-12T14:19:26.540Z,4.03
2023-04-12T14:21:58.106Z,9.85
2023-04-12T14:24:26.666Z,2.65
2023-04-12T14:26:57.531Z,3.13
2023-04-12T14:29:27.171Z,2.72
2023-04-12T14:31:56.952Z,2.10
2023-04-12T14:34:25.282Z,2.78
2023-04-12T14:36:56.392Z,6.15
2023-04-12T14:39:26.090Z,2.80
2023-04-12T14:41:54.596Z,4.63
2023-04-12T14:44:25.992Z,4.68
2023-04-12T14:46:59.203Z,4.10
2023-04-12T14:49:28.529Z,2.85
2023-04-12T14:51:59.627Z,5.93
2023-04-12T14:54:28.029Z,2.47
2023-04-12T14:56:56.812Z,3.45
2023-04-12T14:59:27.100Z,2.22
2023-04-12T15:01:59.989Z,4.55
2023-04-12T15:04:28.487Z,4.47
2023-04-12T15:06:57.039Z,7.82
2023-04-12T15:09:26.218Z,5.13
2023-04-12T15:12:03.416Z,5.63
2023-04-12T15:14:31.982Z,5.13
2023-04-12T15:17:01.708Z,2.38
2023-04-12T15:19:32.430Z,3.08
2023-04-12T15:22:00.741Z,2.95
2023-04-12T15:24:30.862Z,3.00
2023-04-12T15:26:59.150Z,4.18
2023-04-12T15:29:27.838Z,2.17
2023-04-12T15:31:57.021Z,8.60
2023-04-12T15:34:28.502Z,11.23
2023-04-12T15:36:56.875Z,6.00
2023-04-12T15:39:25.532Z,3.83
2023-04-12T15:41:56.970Z,11.65
2023-04-12T15:44:31.556Z,8.20
2023-04-12T15:47:10.289Z,12.48
2023-04-12T15:49:42.101Z,7.68
2023-04-12T15:52:10.518Z,7.13
2023-04-12T15:54:43.637Z,3.53
2023-04-12T15:57:12.190Z,3.92
2023-04-12T15:59:41.966Z,4.45
2023-04-12T16:02:10.773Z,5.45
2023-04-12T16:04:41.879Z,4.30
2023-04-12T16:07:10.629Z,4.03
2023-04-12T16:09:40.771Z,5.75
2023-04-12T16:12:10.042Z,8.00
2023-04-12T16:14:39.328Z,6.38
2023-04-12T16:17:08.549Z,8.48
2023-04-12T16:19:36.878Z,4.57
2023-04-12T16:22:07.599Z,27.52
2023-04-12T16:24:35.986Z,14.98
2023-04-12T16:27:04.434Z,8.68
2023-04-12T16:29:35.496Z,9.18
2023-04-12T16:32:08.043Z,12.30
2023-04-12T16:34:36.592Z,8.55
2023-04-12T16:37:06.327Z,5.53
2023-04-12T16:39:36.785Z,6.93
2023-04-12T16:42:07.799Z,9.15
2023-04-12T16:44:37.909Z,34.92
2023-04-12T16:47:07.192Z,16.70
2023-04-12T16:49:35.732Z,12.32
2023-04-12T16:52:09.746Z,18.67
2023-04-12T16:54:38.119Z,20.35
2023-04-12T16:57:06.849Z,13.50
2023-04-12T16:59:35.212Z,16.15
2023-04-12T17:02:05.362Z,14.90
2023-04-12T17:04:33.788Z,32.00
2023-04-12T17:07:02.872Z,20.70
2023-04-12T17:09:32.572Z,13.02
2023-04-12T17:12:01.485Z,13.80
2023-04-12T17:14:30.023Z,10.57
2023-04-12T17:16:58.463Z,11.70
2023-04-12T17:19:27.108Z,10.18
2023-04-12T17:21:55.669Z,10.38
2023-04-12T17:24:25.299Z,9.77
2023-04-12T17:26:54.981Z,10.75
2023-04-12T17:29:23.439Z,11.38
2023-04-12T17:31:54.263Z,7.38
2023-04-12T17:34:23.759Z,10.48
2023-04-12T17:36:55.215Z,11.13
2023-04-12T17:39:23.755Z,10.13
2023-04-12T17:41:52.069Z,10.15
2023-04-12T17:44:21.783Z,9.98
2023-04-12T17:46:50.106Z,14.27
2023-04-12T17:49:18.424Z,10.75
2023-04-12T17:51:46.735Z,14.32
2023-04-12T17:54:14.999Z,10.73
2023-04-12T17:56:46.007Z,12.45
2023-04-12T17:59:14.436Z,10.95
2023-04-12T18:01:44.187Z,10.82
2023-04-12T18:04:15.655Z,10.57
2023-04-12T18:06:45.135Z,12.95
2023-04-12T18:09:14.100Z,11.10
2023-04-12T18:11:45.433Z,12.88
2023-04-12T18:14:15.448Z,14.10
2023-04-12T18:16:45.266Z,11.05
2023-04-12T18:19:16.440Z,13.15
2023-04-12T18:21:49.480Z,13.25
2023-04-12T18:24:17.833Z,13.45
2023-04-12T18:26:46.910Z,8.38
2023-04-12T18:29:17.613Z,9.80
2023-04-12T18:31:49.430Z,13.35
2023-04-12T18:34:20.992Z,14.18
2023-04-12T18:36:50.830Z,12.73
2023-04-12T18:39:22.143Z,10.88
2023-04-12T18:41:54.059Z,10.80
2023-04-12T18:44:25.771Z,9.57
2023-04-12T18:47:00.053Z,8.48
2023-04-12T18:49:29.060Z,9.95
2023-04-12T18:51:59.091Z,13.88
2023-04-12T18:54:28.931Z,22.75
2023-04-12T18:57:01.123Z,25.48
2023-04-12T18:59:29.472Z,23.17
2023-04-12T19:02:02.679Z,18.35
2023-04-12T19:04:31.413Z,17.90
2023-04-12T19:07:00.079Z,17.33
2023-04-12T19:09:29.060Z,12.95
2023-04-12T19:11:57.505Z,13.65
2023-04-12T19:14:28.088Z,14.25
2023-04-12T19:16:57.091Z,17.45
2023-04-12T19:19:26.774Z,19.63
2023-04-12T19:21:58.133Z,20.42
2023-04-12T19:24:28.656Z,15.88
2023-04-12T19:26:57.714Z,15.93
2023-04-12T19:29:27.851Z,17.75
2023-04-12T19:31:56.252Z,13.10
2023-04-12T19:34:36.734Z,13.88
2023-04-12T19:37:05.876Z,15.68
2023-04-12T19:39:40.040Z,13.02
2023-04-12T19:42:10.935Z,15.43
2023-04-12T19:44:40.696Z,15.60
2023-04-12T19:47:08.885Z,16.23
2023-04-12T19:49:38.501Z,19.52
2023-04-12T19:52:07.743Z,18.58
2023-04-12T19:54:38.441Z,24.27
2023-04-12T19:57:06.963Z,22.02
2023-04-12T19:59:36.686Z,19.98
2023-04-12T20:02:05.142Z,13.57
2023-04-12T20:04:34.289Z,15.23
2023-04-12T20:07:11.341Z,13.15
2023-04-12T20:09:39.979Z,13.13
2023-04-12T20:12:08.894Z,16.77
2023-04-12T20:14:38.405Z,12.00
2023-04-12T20:17:06.978Z,12.80
2023-04-12T20:19:35.184Z,15.75
2023-04-12T20:22:06.752Z,11.27
2023-04-12T20:24:38.631Z,9.80
2023-04-12T20:27:07.462Z,10.27
2023-04-12T20:29:36.161Z,8.90
2023-04-12T20:32:05.062Z,14.73
2023-04-12T20:34:35.062Z,9.75
2023-04-12T20:37:07.133Z,9.25
2023-04-12T20:39:35.362Z,8.32
2023-04-12T20:42:06.624Z,12.32
2023-04-12T20:44:35.926Z,9.25
2023-04-12T20:47:04.242Z,15.20
2023-04-12T20:49:33.161Z,10.65
2023-04-12T20:52:02.093Z,10.20
2023-04-12T20:54:33.198Z,12.35
2023-04-12T20:57:04.072Z,12.48
2023-04-12T20:59:33.368Z,9.88
2023-04-12T21:02:01.646Z,9.75
2023-04-12T21:04:30.437Z,7.50
2023-04-12T21:06:58.741Z,11.32
2023-04-12T21:09:26.949Z,9.45
2023-04-12T21:11:57.831Z,7.85
2023-04-12T21:14:29.052Z,7.00
2023-04-12T21:16:57.254Z,11.25
2023-04-12T21:19:25.409Z,9.65
2023-04-12T21:21:53.525Z,8.38
2023-04-12T21:24:22.022Z,7.25
2023-04-12T21:26:57.316Z,9.55
2023-04-12T21:29:25.545Z,10.65
2023-04-12T21:31:53.735Z,9.38
2023-04-12T21:34:22.306Z,11.98
2023-04-12T21:36:50.884Z,13.63
2023-04-12T21:39:19.038Z,11.10
2023-04-12T21:41:47.190Z,13.70
2023-04-12T21:44:16.896Z,12.50
2023-04-12T21:46:45.083Z,14.00
2023-04-12T21:49:13.227Z,18.80
2023-04-12T21:51:41.604Z,10.70
2023-04-12T21:54:14.329Z,16.02
2023-04-12T21:56:42.558Z,17.00
2023-04-12T21:59:10.828Z,14.52
2023-04-12T22:01:41.595Z,16.08
2023-04-12T22:04:09.894Z,17.48
2023-04-12T22:06:38.146Z,12.07
2023-04-12T22:09:06.366Z,11.02
2023-04-12T22:11:34.540Z,11.60
2023-04-12T22:14:02.945Z,11.85
2023-04-12T22:16:32.786Z,9.70
2023-04-12T22:19:02.465Z,12.63
2023-04-12T22:21:30.958Z,9.95
2023-04-12T22:23:59.754Z,11.38
2023-04-12T22:26:28.084Z,12.88
2023-04-12T22:28:56.263Z,11.18
2023-04-12T22:31:26.016Z,12.32
2023-04-12T22:33:56.694Z,13.02
2023-04-12T22:36:29.351Z,11.50
2023-04-12T22:38:57.989Z,13.15
2023-04-12T22:41:28.266Z,11.85
2023-04-12T22:44:02.886Z,14.30
2023-04-12T22:46:32.424Z,10.95
2023-04-12T22:49:01.627Z,12.90
2023-04-12T22:51:32.132Z,10.70
2023-04-12T22:54:02.533Z,11.70
2023-04-12T22:56:30.747Z,8.43
2023-04-12T22:58:58.936Z,8.77
2023-04-12T23:01:29.311Z,11.52
2023-04-12T23:04:00.521Z,11.23
2023-04-12T23:06:31.378Z,10.63
2023-04-12T23:09:02.310Z,9.23
2023-04-12T23:11:30.522Z,8.10
2023-04-12T23:13:59.462Z,10.15
2023-04-12T23:16:28.390Z,12.88
2023-04-12T23:18:57.554Z,11.73
2023-04-12T23:21:25.825Z,9.55
2023-04-12T23:23:56.968Z,6.72
2023-04-12T23:26:25.630Z,10.85
2023-04-12T23:28:56.388Z,10.88
2023-04-12T23:31:24.668Z,9.30
2023-04-12T23:33:52.867Z,10.98
2023-04-12T23:36:21.928Z,8.55
2023-04-12T23:38:55.336Z,10.55
2023-04-12T23:41:24.868Z,9.02
2023-04-12T23:43:54.085Z,9.52
2023-04-12T23:46:22.418Z,8.40
2023-04-12T23:48:50.819Z,9.43
2023-04-12T23:51:19.027Z,10.48
2023-04-12T23:53:47.591Z,13.00
2023-04-12T23:56:15.830Z,10.95
2023-04-12T23:58:45.601Z,9.63
